createdAt,value
2019-02-09T00:02:21.884Z,86.25
2019-02-09T00:07:40.185Z,86.39
2019-02-09T00:12:57.418Z,86.23
2019-02-09T00:18:14.861Z,86.49
2019-02-09T00:23:31.993Z,86.59
2019-02-09T00:28:49.801Z,86.75
2019-02-09T00:34:07.451Z,86.76
2019-02-09T00:39:24.502Z,86.53
2019-02-09T00:44:41.595Z,86.69
2019-02-09T00:49:59.170Z,86.64
2019-02-09T00:55:16.618Z,87.35
2019-02-09T01:00:33.919Z,86.89
2019-02-09T01:05:51.900Z,87.06
2019-02-09T01:11:09.046Z,86.60
2019-02-09T01:16:26.178Z,86.75
2019-02-09T01:21:44.496Z,87.13
2019-02-09T01:27:02.765Z,87.02
2019-02-09T01:32:20.302Z,86.83
2019-02-09T01:37:37.370Z,86.28
2019-02-09T01:42:55.582Z,86.30
2019-02-09T01:48:13.800Z,86.32
2019-02-09T01:53:31.574Z,86.82
2019-02-09T01:58:49.946Z,86.44
2019-02-09T02:04:07.087Z,86.30
2019-02-09T02:09:24.566Z,85.93
2019-02-09T02:14:42.290Z,85.65
2019-02-09T02:19:59.187Z,85.32
2019-02-09T02:25:17.462Z,84.84
2019-02-09T02:30:35.947Z,84.74
2019-02-09T02:35:53.585Z,84.74
2019-02-09T02:41:12.140Z,84.71
2019-02-09T02:46:29.093Z,84.70
2019-02-09T02:51:45.954Z,84.92
2019-02-09T02:57:03.421Z,85.16
2019-02-09T03:02:20.726Z,85.16
2019-02-09T03:07:38.650Z,85.03
2019-02-09T03:12:55.700Z,85.33
2019-02-09T03:18:12.766Z,85.14
2019-02-09T03:23:29.915Z,84.75
2019-02-09T03:28:47.549Z,85.14
2019-02-09T03:34:05.251Z,84.98
2019-02-09T03:39:22.117Z,84.83
2019-02-09T03:44:39.885Z,84.46
2019-02-09T03:49:57.306Z,84.55
2019-02-09T03:55:14.346Z,84.53
2019-02-09T04:00:44.991Z,84.30
2019-02-09T04:06:01.167Z,84.03
2019-02-09T04:11:18.635Z,84.02
2019-02-09T04:16:35.603Z,84.16
2019-02-09T04:21:52.557Z,84.13
2019-02-09T04:27:10.106Z,84.26
2019-02-09T04:32:29.255Z,84.16
2019-02-09T04:37:46.363Z,84.91
2019-02-09T04:43:04.663Z,85.05
2019-02-09T04:48:21.735Z,84.76
2019-02-09T04:53:39.555Z,84.46
2019-02-09T04:58:57.556Z,85.81
2019-02-09T05:04:14.843Z,86.74
2019-02-09T05:09:32.738Z,86.15
2019-02-09T05:14:50.758Z,85.86
2019-02-09T05:20:10.591Z,85.42
2019-02-09T05:25:28.302Z,85.76
2019-02-09T05:30:45.923Z,85.49
2019-02-09T05:36:03.098Z,85.29
2019-02-09T05:41:22.808Z,85.19
2019-02-09T05:46:40.141Z,85.34
2019-02-09T05:51:57.277Z,85.46
2019-02-09T05:57:14.847Z,85.86
2019-02-09T06:02:38.060Z,85.32
2019-02-09T06:07:55.824Z,85.10
2019-02-09T06:13:14.354Z,85.69
2019-02-09T06:18:31.893Z,85.90
2019-02-09T06:23:49.401Z,85.49
2019-02-09T06:29:06.942Z,85.28
2019-02-09T06:34:24.294Z,85.23
2019-02-09T06:39:41.688Z,85.15
2019-02-09T06:44:59.885Z,85.13
2019-02-09T06:50:18.545Z,85.74
2019-02-09T06:55:39.442Z,85.61
2019-02-09T07:00:56.860Z,85.74
2019-02-09T07:06:31.106Z,85.73
2019-02-09T07:11:50.286Z,85.99
2019-02-09T07:17:08.460Z,86.35
2019-02-09T07:22:26.968Z,86.07
2019-02-09T07:27:45.914Z,85.76
2019-02-09T07:33:03.672Z,85.58
2019-02-09T07:38:21.611Z,85.26
2019-02-09T07:43:39.298Z,84.95
2019-02-09T07:48:57.792Z,84.74
2019-02-09T07:54:15.593Z,84.57
2019-02-09T07:59:32.819Z,84.00
2019-02-09T08:04:50.118Z,83.35
2019-02-09T08:10:09.611Z,82.69
2019-02-09T08:15:28.900Z,81.76
2019-02-09T08:20:47.590Z,81.09
2019-02-09T08:26:05.960Z,80.34
2019-02-09T08:31:24.084Z,78.77
2019-02-09T08:36:41.573Z,79.67
2019-02-09T08:41:59.572Z,78.42
2019-02-09T08:47:16.941Z,78.77
2019-02-09T08:52:34.189Z,78.72
2019-02-09T08:57:52.733Z,78.86
2019-02-09T09:03:10.786Z,78.10
2019-02-09T09:08:28.279Z,76.61
2019-02-09T09:13:45.529Z,77.82
2019-02-09T09:19:02.562Z,77.32
2019-02-09T09:24:20.458Z,76.65
2019-02-09T09:29:38.086Z,76.53
2019-02-09T09:34:55.409Z,75.37
2019-02-09T09:40:16.684Z,74.61
2019-02-09T09:45:35.815Z,71.26
2019-02-09T09:50:53.537Z,65.90
2019-02-09T09:56:11.716Z,62.29
2019-02-09T10:01:28.963Z,62.29
2019-02-09T10:06:46.986Z,54.00
2019-02-09T10:12:04.609Z,52.71
2019-02-09T10:17:22.361Z,50.17
2019-02-09T10:22:40.017Z,50.48
2019-02-09T10:27:58.130Z,49.85
2019-02-09T10:33:15.523Z,47.99
2019-02-09T10:38:32.767Z,50.60
2019-02-09T10:43:50.165Z,52.15
2019-02-09T10:49:07.927Z,51.19
2019-02-09T10:54:24.945Z,52.26
2019-02-09T10:59:42.668Z,50.21
2019-02-09T11:05:00.827Z,48.69
2019-02-09T11:10:18.135Z,45.80
2019-02-09T11:15:35.947Z,47.40
2019-02-09T11:20:54.033Z,48.01
2019-02-09T11:26:11.532Z,46.53
2019-02-09T11:31:29.281Z,47.59
2019-02-09T11:36:46.705Z,46.86
2019-02-09T11:42:04.164Z,45.08
2019-02-09T11:47:21.970Z,46.52
2019-02-09T11:52:39.403Z,46.31
2019-02-09T11:57:58.113Z,46.95
2019-02-09T12:03:16.417Z,46.65
2019-02-09T12:08:34.391Z,47.66
2019-02-09T12:13:59.644Z,47.67
2019-02-09T12:19:18.268Z,48.16
2019-02-09T12:24:37.293Z,48.24
2019-02-09T12:29:56.611Z,47.34
2019-02-09T12:35:12.741Z,46.99
2019-02-09T12:40:31.900Z,46.32
2019-02-09T12:45:49.759Z,43.52
2019-02-09T12:51:07.778Z,41.90
2019-02-09T12:56:26.077Z,40.75
2019-02-09T13:01:43.695Z,39.14
2019-02-09T13:07:01.199Z,39.34
2019-02-09T13:12:18.307Z,39.52
2019-02-09T13:17:36.164Z,38.48
2019-02-09T13:22:53.831Z,37.24
2019-02-09T13:28:11.039Z,36.48
2019-02-09T13:33:28.335Z,35.25
2019-02-09T13:38:46.509Z,32.77
2019-02-09T13:44:03.625Z,34.82
2019-02-09T13:49:21.502Z,32.32
2019-02-09T13:54:38.743Z,31.90
2019-02-09T13:59:56.461Z,33.38
2019-02-09T14:05:15.025Z,36.32
2019-02-09T14:10:33.197Z,39.67
2019-02-09T14:15:51.387Z,42.48
2019-02-09T14:21:08.793Z,44.04
2019-02-09T14:26:26.534Z,45.64
2019-02-09T14:31:45.142Z,47.78
2019-02-09T14:37:02.958Z,47.23
2019-02-09T14:42:21.058Z,47.28
2019-02-09T14:47:39.624Z,50.79
2019-02-09T14:52:56.952Z,49.88
2019-02-09T14:58:15.793Z,51.00
2019-02-09T15:03:34.105Z,52.76
2019-02-09T15:08:52.033Z,52.61
2019-02-09T15:14:10.622Z,52.95
2019-02-09T15:19:30.478Z,52.28
2019-02-09T15:24:48.636Z,52.31
2019-02-09T15:30:08.274Z,53.77
2019-02-09T15:35:26.510Z,52.22
2019-02-09T15:40:44.327Z,53.65
2019-02-09T15:46:02.662Z,53.40
2019-02-09T15:51:21.377Z,53.47
2019-02-09T15:56:43.071Z,57.08
2019-02-09T16:02:00.984Z,57.02
2019-02-09T16:07:19.305Z,56.57
2019-02-09T16:12:37.352Z,58.62
2019-02-09T16:17:54.726Z,58.29
2019-02-09T16:23:12.954Z,57.73
2019-02-09T16:28:30.781Z,58.51
2019-02-09T16:33:48.749Z,59.50
2019-02-09T16:39:07.645Z,57.86
2019-02-09T16:44:25.993Z,59.39
2019-02-09T16:49:43.728Z,58.75
2019-02-09T16:55:01.458Z,61.91
2019-02-09T17:00:24.277Z,60.93
2019-02-09T17:05:42.551Z,61.82
2019-02-09T17:11:00.366Z,61.75
2019-02-09T17:16:18.290Z,60.49
2019-02-09T17:21:36.343Z,60.32
2019-02-09T17:26:56.245Z,58.49
2019-02-09T17:32:13.818Z,58.40
2019-02-09T17:37:31.555Z,58.25
2019-02-09T17:42:53.280Z,59.38
2019-02-09T17:48:07.422Z,58.53
2019-02-09T17:53:25.191Z,57.31
2019-02-09T17:58:42.583Z,58.59
2019-02-09T18:04:00.295Z,63.00
2019-02-09T18:09:18.026Z,64.34
2019-02-09T18:14:36.430Z,63.79
2019-02-09T18:19:54.154Z,64.64
2019-02-09T18:25:12.965Z,66.41
2019-02-09T18:30:30.937Z,65.51
2019-02-09T18:35:51.040Z,67.96
2019-02-09T18:41:09.608Z,68.31
2019-02-09T18:46:27.638Z,71.45
2019-02-09T18:51:45.693Z,71.52
2019-02-09T18:57:04.580Z,73.36
2019-02-09T19:02:23.992Z,73.80
2019-02-09T19:07:41.340Z,72.75
2019-02-09T19:13:00.711Z,73.00
2019-02-09T19:18:18.247Z,73.87
2019-02-09T19:23:36.156Z,74.33
2019-02-09T19:28:54.156Z,74.96
2019-02-09T19:34:11.683Z,73.43
2019-02-09T19:39:30.183Z,74.84
2019-02-09T19:44:47.890Z,73.61
2019-02-09T19:50:06.427Z,73.87
2019-02-09T19:55:25.117Z,75.65
2019-02-09T20:00:43.930Z,75.64
2019-02-09T20:06:01.700Z,76.89
2019-02-09T20:11:18.933Z,75.79
2019-02-09T20:16:36.745Z,75.95
2019-02-09T20:21:54.489Z,75.51
2019-02-09T20:27:12.689Z,75.28
2019-02-09T20:32:30.447Z,76.02
2019-02-09T20:37:49.109Z,76.58
2019-02-09T20:43:07.435Z,76.91
2019-02-09T20:48:25.706Z,77.21
2019-02-09T20:53:44.079Z,78.57
2019-02-09T20:59:01.862Z,78.34
2019-02-09T21:04:20.314Z,77.71
2019-02-09T21:09:37.630Z,80.11
2019-02-09T21:14:55.306Z,77.58
2019-02-09T21:20:12.816Z,77.23
2019-02-09T21:25:31.310Z,78.91
2019-02-09T21:30:48.859Z,80.00
2019-02-09T21:36:07.213Z,79.96
2019-02-09T21:41:25.331Z,80.92
2019-02-09T21:46:42.641Z,79.59
2019-02-09T21:51:59.991Z,80.08
2019-02-09T21:57:18.224Z,80.31
2019-02-09T22:02:42.296Z,79.82
2019-02-09T22:07:54.600Z,80.90
2019-02-09T22:13:12.600Z,81.14
2019-02-09T22:18:30.810Z,81.26
2019-02-09T22:29:40.095Z,78.33
2019-02-09T22:35:00.521Z,75.59
2019-02-09T22:40:19.685Z,74.42
2019-02-09T22:45:38.066Z,72.22
2019-02-09T22:50:55.663Z,71.52
2019-02-09T22:56:13.433Z,70.50
2019-02-09T23:01:36.343Z,70.29
2019-02-09T23:06:58.549Z,68.80
2019-02-09T23:12:18.530Z,69.37
2019-02-09T23:17:38.436Z,69.50
2019-02-09T23:22:58.556Z,69.71
2019-02-09T23:28:18.330Z,69.83
2019-02-09T23:33:37.798Z,69.94
2019-02-09T23:38:57.796Z,70.27
2019-02-09T23:44:15.408Z,70.25
2019-02-09T23:49:33.180Z,72.71
2019-02-09T23:54:51.216Z,74.01
